Time;durP1;ratioP1;P1;durP2;ratioP2;P2;SDS_P1;SDS_P2;PMS_P1;PMS_P2;Temp;Humidity;BMP_temperature;BMP_pressure;BME280_temperature;BME280_humidity;BME280_pressure;Samples;Min_cycle;Max_cycle;Signal;HPM_P1;HPM_P2
2021/10/27 00:04:38;;;;;;;22.08;13.45;;;;;;;7.00;94.78;101433.03;20817662;28;20494;-69
2021/10/27 00:14:40;;;;;;;22.15;13.25;;;;;;;6.93;94.85;101427.72;20817440;28;20507;-69
2021/10/27 00:24:41;;;;;;;24.60;13.77;;;;;;;6.87;94.64;101429.38;20815861;28;20049;-70
2021/10/27 00:34:43;;;;;;;25.05;14.07;;;;;;;6.83;94.79;101436.22;20815980;28;20041;-69
2021/10/27 00:44:44;;;;;;;27.88;17.83;;;;;;;6.77;94.49;101430.94;20816455;28;20691;-69
2021/10/27 00:54:48;;;;;;;25.60;15.63;;;;;;;6.67;95.04;101429.03;20815802;28;20096;-69
2021/10/27 01:04:50;;;;;;;28.63;15.30;;;;;;;6.58;94.82;101437.56;20828617;28;20041;-69
2021/10/27 01:14:52;;;;;;;25.20;13.93;;;;;;;6.51;94.90;101443.50;20830064;28;20483;-69
2021/10/27 01:24:55;;;;;;;25.90;14.52;;;;;;;6.51;94.45;101448.69;20828224;28;20057;-69
2021/10/27 01:34:58;;;;;;;23.55;14.00;;;;;;;6.71;94.39;101433.44;20827567;28;20052;-70
2021/10/27 01:44:59;;;;;;;22.27;13.35;;;;;;;6.76;92.99;101410.97;20827624;28;20131;-69
2021/10/27 01:55:01;;;;;;;24.80;15.30;;;;;;;6.69;94.13;101411.72;20826796;28;20107;-69
2021/10/27 02:05:03;;;;;;;24.33;14.25;;;;;;;6.57;93.68;101409.78;20825168;28;20103;-69
2021/10/27 02:15:06;;;;;;;25.10;15.00;;;;;;;6.44;94.05;101405.22;20824192;28;20493;-69
2021/10/27 02:25:07;;;;;;;23.48;12.40;;;;;;;6.33;94.16;101406.78;20824264;28;20498;-69
2021/10/27 02:35:09;;;;;;;21.40;12.95;;;;;;;6.25;94.46;101400.56;20823268;28;20103;-69
2021/10/27 02:45:11;;;;;;;24.63;13.73;;;;;;;6.24;94.69;101407.47;20823163;28;20049;-69
2021/10/27 02:55:12;;;;;;;26.13;14.95;;;;;;;6.24;94.76;101402.28;20822275;28;20049;-70
2021/10/27 03:05:14;;;;;;;28.30;15.18;;;;;;;6.24;94.90;101404.00;20821591;28;20478;-70
2021/10/27 03:15:16;;;;;;;25.80;15.88;;;;;;;6.29;95.13;101411.03;20820643;28;20049;-70
2021/10/27 03:25:17;;;;;;;26.70;16.42;;;;;;;6.59;95.98;101415.88;20819781;28;20053;-70
2021/10/27 03:35:18;;;;;;;29.67;15.68;;;;;;;6.83;95.56;101410.19;20819266;28;20095;-70
2021/10/27 03:45:20;;;;;;;23.30;15.18;;;;;;;7.00;95.15;101417.41;20819248;28;20107;-70
2021/10/27 03:55:21;;;;;;;21.27;13.65;;;;;;;7.08;95.09;101421.00;20818744;28;20674;-70
2021/10/27 04:05:23;;;;;;;22.33;14.15;;;;;;;7.07;95.37;101429.66;20818258;28;20041;-70
2021/10/27 04:15:24;;;;;;;26.60;14.73;;;;;;;7.02;95.68;101424.38;20818104;28;20049;-70
2021/10/27 04:25:26;;;;;;;23.83;14.43;;;;;;;6.92;95.23;101431.19;20815560;28;20053;-70
2021/10/27 04:35:29;;;;;;;23.65;14.02;;;;;;;6.86;94.99;101436.28;20824113;28;20045;-70
2021/10/27 04:45:31;;;;;;;26.80;15.02;;;;;;;6.88;95.45;101439.78;20832486;28;20049;-70
2021/10/27 04:55:33;;;;;;;22.40;13.75;;;;;;;6.77;95.79;101441.34;20833006;28;20049;-69
2021/10/27 05:05:41;;;;;;;22.65;13.80;;;;;;;6.67;95.56;101457.66;20830547;28;20058;-70
2021/10/27 05:15:42;;;;;;;22.90;14.80;;;;;;;6.59;95.74;101451.44;20830353;28;20053;-69
2021/10/27 05:25:44;;;;;;;24.67;15.75;;;;;;;6.59;95.48;101459.25;20827843;28;20073;-70
2021/10/27 05:35:45;;;;;;;22.02;14.57;;;;;;;6.72;95.46;101458.63;20830093;28;20037;-70
2021/10/27 05:45:47;;;;;;;23.15;14.88;;;;;;;6.83;95.66;101441.44;20828561;28;20235;-69
2021/10/27 05:55:49;;;;;;;25.02;15.20;;;;;;;6.96;95.97;101452.06;20826548;28;20494;-69
2021/10/27 06:05:51;;;;;;;29.52;15.75;;;;;;;7.10;95.63;101450.56;20825551;28;20088;-69
2021/10/27 06:15:53;;;;;;;28.55;16.83;;;;;;;7.24;95.49;101469.88;20824551;28;20046;-70
2021/10/27 06:25:54;;;;;;;23.85;15.48;;;;;;;7.30;94.92;101469.97;20824322;28;20406;-69
2021/10/27 06:56:24;;;;;;;25.98;16.77;;;;;;;7.82;94.00;101475.03;20821356;28;20041;-69
2021/10/27 07:06:41;;;;;;;24.50;15.90;;;;;;;8.05;93.98;101483.09;20835032;28;20499;-70
2021/10/27 07:16:42;;;;;;;23.73;14.82;;;;;;;8.27;93.25;101485.09;20759326;28;20069;-70
2021/10/27 07:26:45;;;;;;;21.55;14.65;;;;;;;8.55;92.65;101493.28;20797168;28;20564;-69
2021/10/27 07:47:06;;;;;;;19.00;11.68;;;;;;;9.17;91.24;101513.84;20730944;28;20046;-69
2021/10/27 07:57:07;;;;;;;20.20;11.95;;;;;;;9.47;90.31;101521.91;20729574;28;20100;-69
2021/10/27 08:07:09;;;;;;;15.95;9.98;;;;;;;9.70;90.09;101535.13;20730252;28;20147;-69
2021/10/27 08:17:10;;;;;;;15.93;10.13;;;;;;;10.06;88.46;101514.38;20807014;28;20630;-70
2021/10/27 08:27:18;;;;;;;15.20;9.63;;;;;;;10.27;87.02;101519.75;20825847;28;20219;-70
2021/10/27 08:37:19;;;;;;;19.05;10.15;;;;;;;10.42;87.02;101509.31;20825164;28;20046;-69
2021/10/27 08:47:24;;;;;;;19.00;10.63;;;;;;;10.73;87.16;101505.03;20825241;28;20049;-70
2021/10/27 08:57:25;;;;;;;14.73;10.27;;;;;;;10.97;86.90;101501.56;20825379;28;20076;-70
2021/10/27 10:09:28;;;;;;;13.00;6.90;;;;;;;12.39;81.58;101452.16;20736362;28;20097;-69
2021/10/27 10:19:41;;;;;;;13.32;6.57;;;;;;;12.60;79.32;101436.28;20797503;28;20053;-70
2021/10/27 10:30:05;;;;;;;10.82;6.10;;;;;;;12.72;79.95;101425.66;20817720;28;20088;-69
2021/10/27 11:42:52;;;;;;;5.15;2.28;;;;;;;13.89;71.97;101356.00;20730636;28;20046;-69
2021/10/27 11:52:54;;;;;;;4.60;2.40;;;;;;;13.97;69.92;101349.75;20730432;28;20053;-69
2021/10/27 12:03:05;;;;;;;4.88;1.80;;;;;;;14.21;67.41;101331.84;20728473;28;20403;-69
2021/10/27 12:13:08;;;;;;;6.28;2.30;;;;;;;14.18;68.81;101321.34;20755636;28;20095;-69
2021/10/27 12:23:18;;;;;;;6.40;2.80;;;;;;;14.43;68.16;101311.28;20809093;28;20119;-70
2021/10/27 12:33:36;;;;;;;10.73;3.42;;;;;;;14.69;68.34;101302.94;20809475;28;20445;-69
2021/10/27 12:43:42;;;;;;;7.75;2.80;;;;;;;14.74;67.12;101280.88;20809441;28;20054;-69
2021/10/27 12:53:47;;;;;;;5.03;2.25;;;;;;;14.83;67.82;101279.81;20811941;28;20057;-69
2021/10/27 13:04:40;;;;;;;4.43;1.48;;;;;;;14.85;67.17;101272.75;20822322;28;20037;-69
2021/10/27 13:34:40;;;;;;;4.80;1.95;;;;;;;14.92;67.44;101248.00;20739279;28;20395;-69
2021/10/27 13:45:01;;;;;;;6.10;1.90;;;;;;;15.13;67.01;101231.72;20739333;28;20045;-69
2021/10/27 15:58:46;;;;;;;9.20;3.50;;;;;;;13.31;78.41;101152.47;20730393;28;20046;-69
2021/10/27 16:08:51;;;;;;;14.95;5.55;;;;;;;12.84;80.98;101159.25;20728414;28;20050;-69
2021/10/27 16:18:54;;;;;;;8.43;4.70;;;;;;;12.56;82.01;101148.19;20802774;28;20049;-69
2021/10/27 16:28:56;;;;;;;10.07;5.18;;;;;;;12.19;83.68;101155.63;20813350;28;20756;-69
2021/10/27 16:38:58;;;;;;;17.52;10.18;;;;;;;11.77;85.90;101155.09;20826839;28;20487;-69
2021/10/27 16:48:59;;;;;;;11.57;5.53;;;;;;;11.55;86.50;101167.53;20825440;28;20050;-69
2021/10/27 16:59:01;;;;;;;14.00;6.95;;;;;;;11.35;86.94;101170.25;20825766;28;20041;-69
2021/10/27 17:09:04;;;;;;;14.07;6.07;;;;;;;11.21;87.32;101166.84;20823246;28;20140;-69
2021/10/27 17:19:05;;;;;;;13.30;6.00;;;;;;;10.95;88.05;101173.13;20746705;28;20050;-69
2021/10/27 17:29:07;;;;;;;11.15;7.15;;;;;;;10.75;89.18;101180.19;20740381;28;20050;-69
2021/10/27 17:39:08;;;;;;;13.68;6.70;;;;;;;10.62;89.69;101175.88;20738716;28;20050;-69
2021/10/27 17:49:33;;;;;;;10.00;5.75;;;;;;;10.32;90.43;101175.09;20738711;28;20057;-70
2021/10/27 17:59:32;;;;;;;12.10;5.93;;;;;;;10.08;90.87;101182.97;20738104;28;20092;-69
2021/10/27 18:09:33;;;;;;;13.13;5.28;;;;;;;9.88;92.01;101194.31;20737055;28;20415;-69
2021/10/27 18:19:48;;;;;;;9.93;5.82;;;;;;;9.66;93.01;101184.72;20817369;28;20564;-69
2021/10/27 18:50:20;;;;;;;15.57;8.38;;;;;;;9.23;94.73;101163.75;20815492;28;20053;-69
2021/10/27 19:00:30;;;;;;;13.15;8.30;;;;;;;9.12;94.53;101166.34;20813922;28;20387;-69
2021/10/27 19:10:54;;;;;;;13.52;9.00;;;;;;;8.99;94.52;101170.63;20809351;28;20050;-70
2021/10/27 19:20:56;;;;;;;14.70;7.95;;;;;;;8.85;94.22;101176.69;20731373;28;20053;-69
2021/10/27 19:31:15;;;;;;;13.63;7.90;;;;;;;8.74;94.30;101164.47;20731395;28;20050;-69
2021/10/27 20:53:27;;;;;;;25.08;14.40;;;;;;;8.15;95.81;101131.09;20810617;28;20484;-69
2021/10/27 21:13:40;;;;;;;26.30;15.60;;;;;;;8.14;96.12;101118.03;20777691;28;20490;-70
2021/10/27 21:23:42;;;;;;;22.92;14.13;;;;;;;8.00;95.95;101111.84;20741350;28;20041;-69
2021/10/27 21:44:04;;;;;;;21.80;15.00;;;;;;;7.86;96.24;101099.63;20739011;28;20511;-70
2021/10/27 21:54:09;;;;;;;26.77;15.40;;;;;;;7.84;96.72;101085.69;20738559;28;20140;-69
2021/10/27 22:04:11;;;;;;;22.23;14.73;;;;;;;7.77;96.76;101083.91;20755030;28;20088;-69
2021/10/27 22:14:12;;;;;;;23.77;15.98;;;;;;;7.70;96.98;101076.91;20825934;28;20107;-69
2021/10/27 22:24:17;;;;;;;25.95;15.98;;;;;;;7.63;96.81;101075.13;20824638;28;20465;-69
2021/10/27 22:34:18;;;;;;;;;;;;;;;7.45;96.69;101063.69;20823193;28;20546;-69
2021/10/27 22:44:20;;;;;;;31.08;15.80;;;;;;;7.28;96.80;101054.91;20823669;28;19951;-69
2021/10/27 22:54:23;;;;;;;28.67;18.27;;;;;;;7.16;96.55;101062.59;20822872;28;20084;-69
2021/10/27 23:05:34;;;;;;;25.23;17.30;;;;;;;7.12;96.33;101053.88;20821674;28;20049;-70
2021/10/27 23:45:43;;;;;;;21.65;12.63;;;;;;;6.51;97.04;101036.78;20819398;28;20457;-69
2021/10/27 23:55:54;;;;;;;21.80;12.18;;;;;;;6.31;96.31;101034.81;20818441;28;20049;-70
